Saint-Joseph-De-Sorel, Canada
Current Conditions -  °F | °C
As of 11:21 PM on Saturday 25 Oct 2014 (Local Time) from CYRQ Reporting Station
Broken Clouds Broken Clouds  
Wind Chill: 46°   Ceiling: 4300
Heat Index: 46°   Visibility: 9mi
Dew Point: 46°   Wind: 2mph
Humidity: 100%   Direction: NA
Pressure: 29.38"   Gusts: NA
Location:  46.03°N, 73.13°W
Report Text: CYRQ 260321Z AUTO VRB02KT 9SM SCT005 BKN043 BKN075 08/08 A2938 RMK SLP950
Loading
Personal Weather Stations






























Interactive Weather Map
Tropical Storm Tracking
New forecast layout! Learn more

10-Day Weather Forecast

Advertisements
Track Severe Weather on mobile